sensor_id;sensor_type;location;lat;lon;timestamp;pressure;altitude;pressure_sealevel;temperature;humidity
68941;BME280;55982;51.476;7.552;2023-01-28T00:01:44;100919.81;;;1.23;100.00
68941;BME280;55982;51.476;7.552;2023-01-28T00:04:10;100924.84;;;1.17;100.00
68941;BME280;55982;51.476;7.552;2023-01-28T00:06:35;100925.81;;;1.22;100.00
68941;BME280;55982;51.476;7.552;2023-01-28T00:09:02;100924.91;;;1.20;100.00
68941;BME280;55982;51.476;7.552;2023-01-28T00:11:27;100930.00;;;1.17;100.00
68941;BME280;55982;51.476;7.552;2023-01-28T00:13:53;100925.78;;;1.21;100.00
68941;BME280;55982;51.476;7.552;2023-01-28T00:16:20;100928.34;;;1.21;100.00
68941;BME280;55982;51.476;7.552;2023-01-28T00:18:47;100928.41;;;1.24;100.00
68941;BME280;55982;51.476;7.552;2023-01-28T00:21:14;100918.84;;;1.18;100.00
68941;BME280;55982;51.476;7.552;2023-01-28T00:23:41;100922.31;;;1.20;100.00
68941;BME280;55982;51.476;7.552;2023-01-28T00:26:12;100913.72;;;1.20;100.00
68941;BME280;55982;51.476;7.552;2023-01-28T00:28:38;100924.88;;;1.19;100.00
68941;BME280;55982;51.476;7.552;2023-01-28T00:31:22;100923.09;;;1.16;100.00
68941;BME280;55982;51.476;7.552;2023-01-28T00:33:49;100914.59;;;1.20;100.00
68941;BME280;55982;51.476;7.552;2023-01-28T00:36:16;100911.16;;;1.21;100.00
68941;BME280;55982;51.476;7.552;2023-01-28T00:38:42;100916.25;;;1.18;100.00
68941;BME280;55982;51.476;7.552;2023-01-28T00:41:13;100912.94;;;1.22;100.00
68941;BME280;55982;51.476;7.552;2023-01-28T00:43:39;100918.88;;;1.20;100.00
68941;BME280;55982;51.476;7.552;2023-01-28T00:46:06;100912.72;;;1.13;100.00
68941;BME280;55982;51.476;7.552;2023-01-28T00:48:33;100921.56;;;1.24;100.00
68941;BME280;55982;51.476;7.552;2023-01-28T00:50:59;100924.00;;;1.18;100.00
68941;BME280;55982;51.476;7.552;2023-01-28T00:53:24;100919.75;;;1.20;100.00
68941;BME280;55982;51.476;7.552;2023-01-28T00:55:50;100927.59;;;1.25;100.00
68941;BME280;55982;51.476;7.552;2023-01-28T00:58:15;100933.41;;;1.16;100.00
68941;BME280;55982;51.476;7.552;2023-01-28T01:00:41;100928.31;;;1.19;100.00
68941;BME280;55982;51.476;7.552;2023-01-28T01:03:06;100930.25;;;1.29;100.00
68941;BME280;55982;51.476;7.552;2023-01-28T01:05:31;100935.91;;;1.13;100.00
68941;BME280;55982;51.476;7.552;2023-01-28T01:07:58;100931.59;;;1.12;100.00
68941;BME280;55982;51.476;7.552;2023-01-28T01:10:24;100938.50;;;1.13;100.00
68941;BME280;55982;51.476;7.552;2023-01-28T01:12:49;100933.19;;;1.07;100.00
68941;BME280;55982;51.476;7.552;2023-01-28T01:15:16;100931.69;;;1.15;100.00
68941;BME280;55982;51.476;7.552;2023-01-28T01:17:44;100930.66;;;1.09;100.00
68941;BME280;55982;51.476;7.552;2023-01-28T01:20:21;100919.41;;;1.05;100.00
68941;BME280;55982;51.476;7.552;2023-01-28T01:22:47;100909.03;;;1.02;100.00
68941;BME280;55982;51.476;7.552;2023-01-28T01:25:15;100916.81;;;1.04;100.00
68941;BME280;55982;51.476;7.552;2023-01-28T01:27:41;100918.47;;;1.02;100.00
68941;BME280;55982;51.476;7.552;2023-01-28T01:30:07;100920.22;;;1.04;100.00
68941;BME280;55982;51.476;7.552;2023-01-28T01:32:34;100917.50;;;0.98;100.00
68941;BME280;55982;51.476;7.552;2023-01-28T01:35:00;100926.16;;;1.00;100.00
68941;BME280;55982;51.476;7.552;2023-01-28T01:37:27;100925.25;;;0.98;100.00
68941;BME280;55982;51.476;7.552;2023-01-28T01:39:53;100927.16;;;1.07;100.00
68941;BME280;55982;51.476;7.552;2023-01-28T01:42:18;100929.69;;;1.04;100.00
68941;BME280;55982;51.476;7.552;2023-01-28T01:45:05;100931.59;;;1.12;100.00
68941;BME280;55982;51.476;7.552;2023-01-28T01:47:41;100925.44;;;1.06;100.00
68941;BME280;55982;51.476;7.552;2023-01-28T01:50:23;100928.06;;;1.07;100.00
68941;BME280;55982;51.476;7.552;2023-01-28T01:52:52;100929.63;;;1.02;100.00
68941;BME280;55982;51.476;7.552;2023-01-28T01:55:21;100939.94;;;1.02;100.00
68941;BME280;55982;51.476;7.552;2023-01-28T01:57:51;100939.94;;;1.02;100.00
68941;BME280;55982;51.476;7.552;2023-01-28T02:00:17;100945.03;;;0.99;100.00
68941;BME280;55982;51.476;7.552;2023-01-28T02:02:45;100942.59;;;1.05;100.00
68941;BME280;55982;51.476;7.552;2023-01-28T02:05:13;100928.78;;;1.02;100.00
68941;BME280;55982;51.476;7.552;2023-01-28T02:07:39;100936.41;;;0.97;100.00
68941;BME280;55982;51.476;7.552;2023-01-28T02:10:07;100933.78;;;0.96;100.00
68941;BME280;55982;51.476;7.552;2023-01-28T02:12:44;100939.72;;;0.93;100.00
68941;BME280;55982;51.476;7.552;2023-01-28T02:15:16;100943.22;;;0.95;100.00
68941;BME280;55982;51.476;7.552;2023-01-28T02:17:43;100946.75;;;1.00;100.00
68941;BME280;55982;51.476;7.552;2023-01-28T02:20:10;100950.19;;;0.99;100.00
68941;BME280;55982;51.476;7.552;2023-01-28T02:36:43;100956.78;;;0.88;100.00
68941;BME280;55982;51.476;7.552;2023-01-28T02:39:23;100958.47;;;0.86;100.00
68941;BME280;55982;51.476;7.552;2023-01-28T02:41:56;100961.84;;;0.85;100.00
68941;BME280;55982;51.476;7.552;2023-01-28T02:44:23;100961.09;;;0.89;100.00
68941;BME280;55982;51.476;7.552;2023-01-28T02:46:51;100963.78;;;0.92;100.00
68941;BME280;55982;51.476;7.552;2023-01-28T02:52:18;100952.44;;;0.85;100.00
68941;BME280;55982;51.476;7.552;2023-01-28T02:55:17;100962.78;;;0.87;100.00
68941;BME280;55982;51.476;7.552;2023-01-28T02:58:15;100963.78;;;0.92;100.00
68941;BME280;55982;51.476;7.552;2023-01-28T03:00:55;100968.78;;;0.86;100.00
68941;BME280;55982;51.476;7.552;2023-01-28T03:03:36;100961.72;;;0.79;100.00
68941;BME280;55982;51.476;7.552;2023-01-28T03:06:09;100954.09;;;0.83;100.00
68941;BME280;55982;51.476;7.552;2023-01-28T03:11:28;100953.00;;;0.74;100.00
68941;BME280;55982;51.476;7.552;2023-01-28T03:14:15;100954.69;;;0.72;100.00
68941;BME280;55982;51.476;7.552;2023-01-28T03:17:00;100953.81;;;0.71;100.00
68941;BME280;55982;51.476;7.552;2023-01-28T03:19:45;100954.78;;;0.75;100.00
68941;BME280;55982;51.476;7.552;2023-01-28T03:22:33;100951.41;;;0.79;100.00
68941;BME280;55982;51.476;7.552;2023-01-28T03:25:21;100949.56;;;0.73;100.00
68941;BME280;55982;51.476;7.552;2023-01-28T03:28:09;100938.47;;;0.76;100.00
68941;BME280;55982;51.476;7.552;2023-01-28T03:31:05;100932.25;;;0.68;100.00
68941;BME280;55982;51.476;7.552;2023-01-28T03:33:52;100935.69;;;0.67;100.00
68941;BME280;55982;51.476;7.552;2023-01-28T03:36:37;100934.06;;;0.72;100.00
68941;BME280;55982;51.476;7.552;2023-01-28T03:39:16;100935.78;;;0.71;100.00
68941;BME280;55982;51.476;7.552;2023-01-28T03:41:42;100942.66;;;0.71;100.00
68941;BME280;55982;51.476;7.552;2023-01-28T03:44:08;100936.75;;;0.75;100.00
68941;BME280;55982;51.476;7.552;2023-01-28T03:46:52;100935.69;;;0.67;100.00
68941;BME280;55982;51.476;7.552;2023-01-28T03:49:17;100951.13;;;0.67;100.00
68941;BME280;55982;51.476;7.552;2023-01-28T03:51:43;100952.06;;;0.70;100.00
68941;BME280;55982;51.476;7.552;2023-01-28T03:54:10;100946.94;;;0.70;100.00
68941;BME280;55982;51.476;7.552;2023-01-28T03:56:36;100957.94;;;0.65;100.00
68941;BME280;55982;51.476;7.552;2023-01-28T03:59:05;100958.16;;;0.74;100.00
68941;BME280;55982;51.476;7.552;2023-01-28T04:01:30;100951.13;;;0.67;100.00
68941;BME280;55982;51.476;7.552;2023-01-28T04:03:56;100964.97;;;0.72;100.00
68941;BME280;55982;51.476;7.552;2023-01-28T04:06:21;100969.38;;;0.76;100.00
68941;BME280;55982;51.476;7.552;2023-01-28T04:08:47;100961.44;;;0.67;100.00
68941;BME280;55982;51.476;7.552;2023-01-28T04:11:20;100964.97;;;0.72;100.00
68941;BME280;55982;51.476;7.552;2023-01-28T04:13:47;100954.69;;;0.72;100.00
68941;BME280;55982;51.476;7.552;2023-01-28T04:16:14;100957.28;;;0.73;100.00
68941;BME280;55982;51.476;7.552;2023-01-28T04:18:41;100959.09;;;0.77;100.00
68941;BME280;55982;51.476;7.552;2023-01-28T04:21:07;100968.25;;;0.65;100.00
68941;BME280;55982;51.476;7.552;2023-01-28T04:23:33;100969.22;;;0.70;100.00
68941;BME280;55982;51.476;7.552;2023-01-28T04:25:58;100969.06;;;0.64;100.00
68941;BME280;55982;51.476;7.552;2023-01-28T04:28:24;100968.97;;;0.59;100.00
68941;BME280;55982;51.476;7.552;2023-01-28T04:30:51;100970.69;;;0.60;100.00
68941;BME280;55982;51.476;7.552;2023-01-28T04:33:17;100966.47;;;0.64;100.00
68941;BME280;55982;51.476;7.552;2023-01-28T04:35:42;100968.25;;;0.65;100.00
68941;BME280;55982;51.476;7.552;2023-01-28T04:38:07;100966.47;;;0.64;100.00
68941;BME280;55982;51.476;7.552;2023-01-28T04:40:33;100969.97;;;0.66;100.00
68941;BME280;55982;51.476;7.552;2023-01-28T04:42:58;100969.06;;;0.64;100.00
68941;BME280;55982;51.476;7.552;2023-01-28T04:45:24;100975.78;;;0.57;100.00
68941;BME280;55982;51.476;7.552;2023-01-28T04:47:49;100980.22;;;0.63;100.00
68941;BME280;55982;51.476;7.552;2023-01-28T04:50:15;100981.94;;;0.64;100.00
68941;BME280;55982;51.476;7.552;2023-01-28T04:52:41;100988.75;;;0.62;100.00
68941;BME280;55982;51.476;7.552;2023-01-28T04:55:07;100987.03;;;0.61;100.00
68941;BME280;55982;51.476;7.552;2023-01-28T04:57:32;100983.59;;;0.62;100.00
68941;BME280;55982;51.476;7.552;2023-01-28T04:59:57;100987.91;;;0.61;100.00
68941;BME280;55982;51.476;7.552;2023-01-28T05:02:24;100985.09;;;0.54;100.00
68941;BME280;55982;51.476;7.552;2023-01-28T05:04:50;100979.94;;;0.54;100.00
68941;BME280;55982;51.476;7.552;2023-01-28T05:07:15;100978.28;;;0.56;100.00
68941;BME280;55982;51.476;7.552;2023-01-28T05:09:41;100979.88;;;0.51;100.00
68941;BME280;55982;51.476;7.552;2023-01-28T05:12:10;100974.69;;;0.48;100.00
68941;BME280;55982;51.476;7.552;2023-01-28T05:14:35;100969.44;;;0.45;100.00
68941;BME280;55982;51.476;7.552;2023-01-28T05:17:00;100970.31;;;0.45;100.00
68941;BME280;55982;51.476;7.552;2023-01-28T05:19:26;100970.38;;;0.48;100.00
68941;BME280;55982;51.476;7.552;2023-01-28T05:21:51;100967.72;;;0.44;100.00
68941;BME280;55982;51.476;7.552;2023-01-28T05:24:16;100976.19;;;0.40;100.00
68941;BME280;55982;51.476;7.552;2023-01-28T05:26:42;100974.41;;;0.39;100.00
68941;BME280;55982;51.476;7.552;2023-01-28T05:29:07;100975.28;;;0.39;100.00
68941;BME280;55982;51.476;7.552;2023-01-28T05:31:33;100967.53;;;0.38;100.00
68941;BME280;55982;51.476;7.552;2023-01-28T05:33:58;100979.66;;;0.42;100.00
68941;BME280;55982;51.476;7.552;2023-01-28T05:36:24;100983.88;;;0.38;100.00
68941;BME280;55982;51.476;7.552;2023-01-28T05:38:49;100993.13;;;0.32;100.00
68941;BME280;55982;51.476;7.552;2023-01-28T05:41:15;100981.00;;;0.28;100.00
68941;BME280;55982;51.476;7.552;2023-01-28T05:43:40;100994.59;;;0.24;100.00
68941;BME280;55982;51.476;7.552;2023-01-28T05:46:06;100991.22;;;0.25;100.00
68941;BME280;55982;51.476;7.552;2023-01-28T05:48:31;100989.28;;;0.18;100.00
68941;BME280;55982;51.476;7.552;2023-01-28T05:50:56;100994.59;;;0.24;100.00
68941;BME280;55982;51.476;7.552;2023-01-28T05:53:22;100997.72;;;0.12;100.00
68941;BME280;55982;51.476;7.552;2023-01-28T05:55:48;101006.38;;;0.16;100.00
68941;BME280;55982;51.476;7.552;2023-01-28T05:58:14;101015.00;;;0.18;100.00
68941;BME280;55982;51.476;7.552;2023-01-28T06:00:40;101021.75;;;0.13;100.00
68941;BME280;55982;51.476;7.552;2023-01-28T06:03:05;101020.78;;;0.09;100.00
68941;BME280;55982;51.476;7.552;2023-01-28T06:05:31;101020.66;;;0.05;100.00
68941;BME280;55982;51.476;7.552;2023-01-28T06:07:56;101015.47;;;0.03;100.00
68941;BME280;55982;51.476;7.552;2023-01-28T06:10:21;101021.50;;;0.04;100.00
68941;BME280;55982;51.476;7.552;2023-01-28T06:12:47;101019.75;;;0.03;100.00
68941;BME280;55982;51.476;7.552;2023-01-28T06:15:13;101012.88;;;0.02;100.00
68941;BME280;55982;51.476;7.552;2023-01-28T06:17:38;101019.53;;;-0.05;100.00
68941;BME280;55982;51.476;7.552;2023-01-28T06:20:04;101022.97;;;-0.05;100.00
68941;BME280;55982;51.476;7.552;2023-01-28T06:22:29;101009.38;;;-0.01;100.00
68941;BME280;55982;51.476;7.552;2023-01-28T06:24:54;101018.78;;;-0.01;100.00
68941;BME280;55982;51.476;7.552;2023-01-28T06:27:20;101012.88;;;0.02;100.00
68941;BME280;55982;51.476;7.552;2023-01-28T06:29:45;101021.31;;;-0.03;100.00
68941;BME280;55982;51.476;7.552;2023-01-28T06:32:10;101017.00;;;-0.04;100.00
68941;BME280;55982;51.476;7.552;2023-01-28T06:34:36;101013.03;;;0.08;100.00
68941;BME280;55982;51.476;7.552;2023-01-28T06:37:01;101009.69;;;0.12;100.00
68941;BME280;55982;51.476;7.552;2023-01-28T06:39:29;101020.66;;;0.05;100.00
68941;BME280;55982;51.476;7.552;2023-01-28T06:41:57;101023.13;;;0.00;100.00
68941;BME280;55982;51.476;7.552;2023-01-28T06:44:22;101009.44;;;0.03;100.00
68941;BME280;55982;51.476;7.552;2023-01-28T06:46:48;101015.34;;;-0.02;100.00
68941;BME280;55982;51.476;7.552;2023-01-28T06:49:13;101018.78;;;-0.01;100.00
68941;BME280;55982;51.476;7.552;2023-01-28T06:51:38;101016.22;;;-0.01;100.00
68941;BME280;55982;51.476;7.552;2023-01-28T06:54:04;101024.81;;;-0.01;100.00
68941;BME280;55982;51.476;7.552;2023-01-28T06:56:29;101024.81;;;-0.01;100.00
68941;BME280;55982;51.476;7.552;2023-01-28T06:58:54;101009.56;;;0.06;100.00
68941;BME280;55982;51.476;7.552;2023-01-28T07:01:20;101019.75;;;0.03;100.00
68941;BME280;55982;51.476;7.552;2023-01-28T07:03:45;101018.25;;;0.11;100.00
68941;BME280;55982;51.476;7.552;2023-01-28T07:06:10;101026.72;;;0.07;100.00
68941;BME280;55982;51.476;7.552;2023-01-28T07:08:36;101013.19;;;0.14;100.00
68941;BME280;55982;51.476;7.552;2023-01-28T07:11:02;100999.75;;;0.24;100.00
68941;BME280;55982;51.476;7.552;2023-01-28T07:13:28;101006.38;;;0.16;100.00
68941;BME280;55982;51.476;7.552;2023-01-28T07:15:54;101012.41;;;0.16;100.00
68941;BME280;55982;51.476;7.552;2023-01-28T07:18:19;101006.06;;;0.04;100.00
68941;BME280;55982;51.476;7.552;2023-01-28T07:20:44;101008.53;;;0.00;100.00
68941;BME280;55982;51.476;7.552;2023-01-28T07:23:10;101010.72;;;0.17;100.00
68941;BME280;55982;51.476;7.552;2023-01-28T07:25:36;101011.09;;;0.00;100.00
68941;BME280;55982;51.476;7.552;2023-01-28T07:28:02;100999.16;;;0.03;100.00
68941;BME280;55982;51.476;7.552;2023-01-28T07:30:27;101011.38;;;0.10;100.00
68941;BME280;55982;51.476;7.552;2023-01-28T07:32:54;101016.53;;;0.10;100.00
68941;BME280;55982;51.476;7.552;2023-01-28T07:35:19;101001.00;;;0.07;100.00
68941;BME280;55982;51.476;7.552;2023-01-28T07:37:52;101001.88;;;0.07;100.00
68941;BME280;55982;51.476;7.552;2023-01-28T07:40:19;101018.81;;;0.00;100.00
68941;BME280;55982;51.476;7.552;2023-01-28T07:42:44;101019.66;;;-0.01;100.00
68941;BME280;55982;51.476;7.552;2023-01-28T07:45:10;101021.50;;;0.04;100.00
68941;BME280;55982;51.476;7.552;2023-01-28T07:47:35;101012.94;;;0.05;100.00
68941;BME280;55982;51.476;7.552;2023-01-28T07:50:01;101017.13;;;0.01;100.00
68941;BME280;55982;51.476;7.552;2023-01-28T07:52:26;101019.91;;;0.09;100.00
68941;BME280;55982;51.476;7.552;2023-01-28T07:54:51;101023.16;;;0.02;100.00
68941;BME280;55982;51.476;7.552;2023-01-28T07:57:18;101030.28;;;0.12;100.00
68941;BME280;55982;51.476;7.552;2023-01-28T07:59:48;101035.59;;;0.18;100.00
68941;BME280;55982;51.476;7.552;2023-01-28T08:02:14;101038.91;;;0.14;100.00
68941;BME280;55982;51.476;7.552;2023-01-28T08:04:39;101035.78;;;0.24;100.00
68941;BME280;55982;51.476;7.552;2023-01-28T08:07:05;101027.66;;;0.40;100.00
68941;BME280;55982;51.476;7.552;2023-01-28T08:09:30;101039.16;;;0.54;100.00
68941;BME280;55982;51.476;7.552;2023-01-28T08:11:58;101033.53;;;0.67;100.00
68941;BME280;55982;51.476;7.552;2023-01-28T08:14:23;101031.59;;;0.60;100.00
68941;BME280;55982;51.476;7.552;2023-01-28T08:16:49;101031.72;;;0.64;100.00
68941;BME280;55982;51.476;7.552;2023-01-28T08:19:14;101044.44;;;0.58;100.00
68941;BME280;55982;51.476;7.552;2023-01-28T08:21:42;101046.09;;;0.56;100.00
68941;BME280;55982;51.476;7.552;2023-01-28T08:24:07;101064.03;;;0.52;100.00
68941;BME280;55982;51.476;7.552;2023-01-28T08:26:32;101068.91;;;0.43;100.00
68941;BME280;55982;51.476;7.552;2023-01-28T08:28:58;101080.53;;;0.29;100.00
68941;BME280;55982;51.476;7.552;2023-01-28T08:31:23;101074.34;;;0.53;100.00
68941;BME280;55982;51.476;7.552;2023-01-28T08:33:49;101073.53;;;0.56;100.00
68941;BME280;55982;51.476;7.552;2023-01-28T08:36:14;101066.16;;;0.68;100.00
68941;BME280;55982;51.476;7.552;2023-01-28T08:38:39;101068.22;;;0.81;100.00
68941;BME280;55982;51.476;7.552;2023-01-28T08:41:05;101069.13;;;0.83;100.00
68941;BME280;55982;51.476;7.552;2023-01-28T08:43:30;101073.50;;;0.85;100.00
68941;BME280;55982;51.476;7.552;2023-01-28T08:45:56;101081.38;;;0.91;100.00
68941;BME280;55982;51.476;7.552;2023-01-28T08:48:21;101092.41;;;0.86;100.00
68941;BME280;55982;51.476;7.552;2023-01-28T08:50:46;101097.75;;;0.93;100.00
68941;BME280;55982;51.476;7.552;2023-01-28T08:53:15;101096.19;;;1.00;100.00
68941;BME280;55982;51.476;7.552;2023-01-28T08:55:40;101099.47;;;0.94;100.00
68941;BME280;55982;51.476;7.552;2023-01-28T08:58:10;101105.66;;;1.01;100.00
68941;BME280;55982;51.476;7.552;2023-01-28T09:00:35;101119.47;;;1.03;100.00
68941;BME280;55982;51.476;7.552;2023-01-28T09:03:02;101116.50;;;0.88;100.00
68941;BME280;55982;51.476;7.552;2023-01-28T09:05:28;101118.38;;;0.95;100.00
68941;BME280;55982;51.476;7.552;2023-01-28T09:07:54;101124.63;;;0.72;100.00
68941;BME280;55982;51.476;7.552;2023-01-28T09:10:19;101129.88;;;0.75;100.00
68941;BME280;55982;51.476;7.552;2023-01-28T09:12:46;101138.50;;;0.77;100.00
68941;BME280;55982;51.476;7.552;2023-01-28T09:15:12;101138.22;;;0.98;100.00
68941;BME280;55982;51.476;7.552;2023-01-28T09:17:38;101134.16;;;1.06;100.00
68941;BME280;55982;51.476;7.552;2023-01-28T09:20:04;101135.16;;;1.12;100.00
68941;BME280;55982;51.476;7.552;2023-01-28T09:22:31;101134.22;;;1.09;100.00
68941;BME280;55982;51.476;7.552;2023-01-28T09:24:57;101132.50;;;1.09;100.00
68941;BME280;55982;51.476;7.552;2023-01-28T09:27:22;101133.69;;;0.89;100.00
68941;BME280;55982;51.476;7.552;2023-01-28T09:29:48;101132.19;;;0.97;100.00
68941;BME280;55982;51.476;7.552;2023-01-28T09:32:13;101139.84;;;0.94;100.00
68941;BME280;55982;51.476;7.552;2023-01-28T09:34:38;101146.66;;;0.92;100.00
68941;BME280;55982;51.476;7.552;2023-01-28T09:37:04;101147.06;;;1.07;100.00
68941;BME280;55982;51.476;7.552;2023-01-28T09:39:29;101137.41;;;1.00;100.00
68941;BME280;55982;51.476;7.552;2023-01-28T09:47:51;101159.69;;;0.98;100.00
68941;BME280;55982;51.476;7.552;2023-01-28T09:50:33;101165.09;;;1.07;100.00
68941;BME280;55982;51.476;7.552;2023-01-28T09:55:56;101158.56;;;1.21;100.00
68941;BME280;55982;51.476;7.552;2023-01-28T09:58:22;101156.50;;;1.41;100.00
68941;BME280;55982;51.476;7.552;2023-01-28T10:03:35;101155.94;;;1.52;100.00
68941;BME280;55982;51.476;7.552;2023-01-28T10:06:21;101166.63;;;1.33;100.00
68941;BME280;55982;51.476;7.552;2023-01-28T10:12:09;101157.38;;;1.41;100.00
68941;BME280;55982;51.476;7.552;2023-01-28T10:17:38;101151.63;;;1.17;100.00
68941;BME280;55982;51.476;7.552;2023-01-28T10:20:22;101150.06;;;0.91;100.00
68941;BME280;55982;51.476;7.552;2023-01-28T10:25:20;101154.53;;;0.98;100.00
68941;BME280;55982;51.476;7.552;2023-01-28T10:27:47;101133.06;;;1.30;100.00
68941;BME280;55982;51.476;7.552;2023-01-28T10:30:22;101139.16;;;1.01;100.00
68941;BME280;55982;51.476;7.552;2023-01-28T10:33:12;101137.66;;;1.09;100.00
68941;BME280;55982;51.476;7.552;2023-01-28T10:35:41;101132.56;;;0.79;100.00
68941;BME280;55982;51.476;7.552;2023-01-28T10:38:14;101121.28;;;1.07;100.00
68941;BME280;55982;51.476;7.552;2023-01-28T10:40:41;101112.06;;;1.51;100.00
68941;BME280;55982;51.476;7.552;2023-01-28T10:43:06;101120.00;;;1.24;100.00
68941;BME280;55982;51.476;7.552;2023-01-28T10:48:24;101143.22;;;1.24;100.00
68941;BME280;55982;51.476;7.552;2023-01-28T10:50:53;101151.75;;;1.23;100.00
68941;BME280;55982;51.476;7.552;2023-01-28T10:53:39;101146.69;;;1.26;100.00
68941;BME280;55982;51.476;7.552;2023-01-28T10:56:24;101138.09;;;1.27;100.00
68941;BME280;55982;51.476;7.552;2023-01-28T10:59:06;101137.13;;;1.56;100.00
68941;BME280;55982;51.476;7.552;2023-01-28T11:04:35;101146.28;;;1.44;100.00
68941;BME280;55982;51.476;7.552;2023-01-28T11:07:02;101151.38;;;1.08;100.00
68941;BME280;55982;51.476;7.552;2023-01-28T11:09:30;101162.22;;;1.29;100.00
68941;BME280;55982;51.476;7.552;2023-01-28T11:11:57;101163.25;;;1.03;100.00
68941;BME280;55982;51.476;7.552;2023-01-28T11:14:25;101171.31;;;1.15;100.00
68941;BME280;55982;51.476;7.552;2023-01-28T11:16:53;101167.00;;;1.14;100.00
68941;BME280;55982;51.476;7.552;2023-01-28T11:19:24;101166.16;;;1.15;100.00
68941;BME280;55982;51.476;7.552;2023-01-28T11:21:53;101170.09;;;1.01;100.00
68941;BME280;55982;51.476;7.552;2023-01-28T11:24:29;101173.22;;;0.91;100.00
68941;BME280;55982;51.476;7.552;2023-01-28T11:27:11;101176.13;;;0.72;100.00
68941;BME280;55982;51.476;7.552;2023-01-28T11:29:39;101177.63;;;0.95;100.00
68941;BME280;55982;51.476;7.552;2023-01-28T11:32:16;101174.19;;;1.27;100.00
68941;BME280;55982;51.476;7.552;2023-01-28T11:34:49;101173.91;;;1.15;100.00
68941;BME280;55982;51.476;7.552;2023-01-28T11:37:15;101175.09;;;1.29;100.00
68941;BME280;55982;51.476;7.552;2023-01-28T11:39:41;101170.34;;;1.44;100.00
68941;BME280;55982;51.476;7.552;2023-01-28T11:42:18;101157.00;;;1.26;100.00
68941;BME280;55982;51.476;7.552;2023-01-28T11:44:45;101138.72;;;1.51;100.00
68941;BME280;55982;51.476;7.552;2023-01-28T11:55:36;101143.44;;;1.33;100.00
68941;BME280;55982;51.476;7.552;2023-01-28T11:58:32;101136.28;;;1.23;100.00
68941;BME280;55982;51.476;7.552;2023-01-28T12:09:12;101134.19;;;1.41;100.00
68941;BME280;55982;51.476;7.552;2023-01-28T12:17:28;101132.97;;;1.27;100.00
68941;BME280;55982;51.476;7.552;2023-01-28T12:22:42;101116.78;;;1.33;100.00
68941;BME280;55982;51.476;7.552;2023-01-28T12:28:20;101110.66;;;1.29;100.00
68941;BME280;55982;51.476;7.552;2023-01-28T12:36:37;101082.50;;;1.72;100.00
68941;BME280;55982;51.476;7.552;2023-01-28T12:39:50;101081.75;;;1.78;100.00
68941;BME280;55982;51.476;7.552;2023-01-28T12:42:26;101077.34;;;1.72;100.00
68941;BME280;55982;51.476;7.552;2023-01-28T12:45:00;101087.31;;;1.57;100.00
68941;BME280;55982;51.476;7.552;2023-01-28T12:47:34;101084.38;;;1.81;100.00
68941;BME280;55982;51.476;7.552;2023-01-28T12:52:43;101048.38;;;2.26;100.00
68941;BME280;55982;51.476;7.552;2023-01-28T12:55:36;101040.09;;;2.00;100.00
68941;BME280;55982;51.476;7.552;2023-01-28T12:58:04;101021.06;;;2.38;100.00
68941;BME280;55982;51.476;7.552;2023-01-28T13:00:34;101003.22;;;2.52;100.00
68941;BME280;55982;51.476;7.552;2023-01-28T13:05:39;100998.78;;;1.99;100.00
68941;BME280;55982;51.476;7.552;2023-01-28T13:08:16;100987.63;;;2.00;100.00
68941;BME280;55982;51.476;7.552;2023-01-28T13:10:45;100986.34;;;1.79;100.00
68941;BME280;55982;51.476;7.552;2023-01-28T13:13:30;100990.47;;;1.71;100.00
68941;BME280;55982;51.476;7.552;2023-01-28T13:15:56;100996.00;;;1.49;100.00
68941;BME280;55982;51.476;7.552;2023-01-28T13:21:05;101018.44;;;2.37;100.00
68941;BME280;55982;51.476;7.552;2023-01-28T13:29:30;101030.97;;;3.66;100.00
68941;BME280;55982;51.476;7.552;2023-01-28T13:31:59;101033.97;;;3.38;100.00
68941;BME280;55982;51.476;7.552;2023-01-28T13:34:36;101028.31;;;3.07;100.00
68941;BME280;55982;51.476;7.552;2023-01-28T13:37:21;101017.75;;;2.93;100.00
68941;BME280;55982;51.476;7.552;2023-01-28T13:39:51;101029.00;;;2.95;100.00
68941;BME280;55982;51.476;7.552;2023-01-28T13:42:22;101029.66;;;2.85;100.00
68941;BME280;55982;51.476;7.552;2023-01-28T13:44:48;101033.03;;;2.81;100.00
68941;BME280;55982;51.476;7.552;2023-01-28T13:47:22;101033.91;;;2.34;100.00
68941;BME280;55982;51.476;7.552;2023-01-28T13:49:56;101042.25;;;2.21;100.00
68941;BME280;55982;51.476;7.552;2023-01-28T13:52:27;101052.91;;;2.39;100.00
68941;BME280;55982;51.476;7.552;2023-01-28T13:54:59;101066.38;;;2.23;100.00
68941;BME280;55982;51.476;7.552;2023-01-28T14:00:32;101043.75;;;2.54;100.00
68941;BME280;55982;51.476;7.552;2023-01-28T14:08:40;101082.34;;;2.05;100.00
68941;BME280;55982;51.476;7.552;2023-01-28T14:11:28;101086.63;;;2.05;100.00
68941;BME280;55982;51.476;7.552;2023-01-28T14:19:56;101078.78;;;1.61;100.00
68941;BME280;55982;51.476;7.552;2023-01-28T14:22:22;101076.16;;;1.60;100.00
68941;BME280;55982;51.476;7.552;2023-01-28T14:24:48;101067.84;;;1.34;100.00
68941;BME280;55982;51.476;7.552;2023-01-28T14:27:21;101064.25;;;1.28;100.00
68941;BME280;55982;51.476;7.552;2023-01-28T14:32:53;101046.97;;;1.24;100.00
68941;BME280;55982;51.476;7.552;2023-01-28T14:35:31;101040.00;;;1.20;100.00
68941;BME280;55982;51.476;7.552;2023-01-28T14:37:58;101024.72;;;1.27;100.00
68941;BME280;55982;51.476;7.552;2023-01-28T14:40:27;101021.34;;;0.94;100.00
68941;BME280;55982;51.476;7.552;2023-01-28T14:42:54;101005.03;;;0.95;100.00
68941;BME280;55982;51.476;7.552;2023-01-28T14:46:12;100994.75;;;0.95;100.00
68941;BME280;55982;51.476;7.552;2023-01-28T14:48:30;100993.44;;;0.76;100.00
68941;BME280;55982;51.476;7.552;2023-01-28T14:59:06;101005.78;;;0.57;100.00
68941;BME280;55982;51.476;7.552;2023-01-28T15:01:42;101019.28;;;0.48;100.00